Time;durP1;ratioP1;P1;durP2;ratioP2;P2;SDS_P1;SDS_P2;PMS_P1;PMS_P2;Temp;Humidity;BMP_temperature;BMP_pressure;BME280_temperature;BME280_humidity;BME280_pressure;Samples;Min_cycle;Max_cycle;Signal;HPM_P1;HPM_P2
2021/04/19 00:01:31;;;;;;;50.57;25.93;;;;;5.60;101740.00;;;;10456910;28;20189;-75
2021/04/19 00:06:33;;;;;;;49.20;27.50;;;;;5.50;101736.00;;;;10473125;28;20221;-74
2021/04/19 00:11:35;;;;;;;49.13;27.43;;;;;5.50;101730.00;;;;10492893;28;20224;-75
2021/04/19 00:16:36;;;;;;;50.27;27.73;;;;;5.40;101730.00;;;;10491181;28;20243;-75
2021/04/19 00:21:38;;;;;;;53.77;28.47;;;;;5.40;101728.00;;;;10474426;28;20193;-75
2021/04/19 00:26:39;;;;;;;52.67;28.60;;;;;5.30;101726.00;;;;10456875;28;20213;-74
2021/04/19 00:31:41;;;;;;;49.60;28.87;;;;;5.20;101728.00;;;;10474462;28;20200;-74
2021/04/19 00:36:42;;;;;;;52.50;29.67;;;;;5.10;101712.00;;;;10489529;28;20194;-75
2021/04/19 00:41:44;;;;;;;53.13;29.67;;;;;5.10;101707.00;;;;10473389;28;20193;-75
2021/04/19 00:46:47;;;;;;;59.43;29.03;;;;;5.00;101699.00;;;;10455828;28;20221;-74
2021/04/19 00:51:53;;;;;;;52.53;30.90;;;;;4.90;101697.00;;;;10473282;28;20189;-74
2021/04/19 00:56:55;;;;;;;61.13;33.07;;;;;4.90;101696.00;;;;10455046;28;20205;-74
2021/04/19 01:01:57;;;;;;;71.13;35.13;;;;;4.90;101689.00;;;;10488038;28;20840;-75
2021/04/19 01:07:01;;;;;;;58.97;32.93;;;;;4.80;101683.00;;;;10472227;28;20249;-74
2021/04/19 01:12:05;;;;;;;62.20;34.73;;;;;4.80;101678.00;;;;10456709;28;20190;-74
2021/04/19 01:17:08;;;;;;;69.87;32.90;;;;;4.70;101682.00;;;;10439674;28;20189;-74
2021/04/19 01:22:10;;;;;;;69.97;33.03;;;;;4.70;101682.00;;;;10473666;28;20201;-74
2021/04/19 01:27:12;;;;;;;59.87;33.87;;;;;4.70;101681.00;;;;10454537;28;20221;-74
2021/04/19 01:32:14;;;;;;;61.10;33.50;;;;;4.70;101676.00;;;;10440103;28;20200;-74
2021/04/19 01:37:16;;;;;;;64.13;32.93;;;;;4.60;101669.00;;;;10463071;28;20211;-74
2021/04/19 01:42:17;;;;;;;67.87;33.30;;;;;4.60;101664.00;;;;10447512;28;20200;-74
2021/04/19 01:47:19;;;;;;;68.60;35.77;;;;;4.60;101662.00;;;;10480509;28;20217;-74
2021/04/19 01:52:20;;;;;;;59.07;33.60;;;;;4.50;101660.00;;;;10445107;28;20201;-74
2021/04/19 01:57:22;;;;;;;60.83;34.43;;;;;4.50;101661.00;;;;10478808;28;20225;-74
2021/04/19 02:02:34;;;;;;;65.93;34.27;;;;;4.50;101653.00;;;;10480177;28;20285;-74
2021/04/19 02:07:39;;;;;;;67.73;34.70;;;;;4.50;101655.00;;;;10478802;28;20287;-74
2021/04/19 02:12:44;;;;;;;68.57;33.93;;;;;4.50;101664.00;;;;10446394;28;20293;-74
2021/04/19 02:18:23;;;;;;;66.53;34.57;;;;;4.40;101661.00;;;;10478457;28;20205;-75
2021/04/19 02:23:38;;;;;;;67.70;34.73;;;;;4.40;101656.00;;;;10461003;28;20193;-75
2021/04/19 02:28:47;;;;;;;62.40;34.13;;;;;4.30;101648.00;;;;10495258;28;20217;-74
2021/04/19 02:33:53;;;;;;;70.37;34.10;;;;;4.30;101656.00;;;;10445800;28;20197;-74
2021/04/19 02:38:57;;;;;;;67.97;35.70;;;;;4.40;101647.00;;;;10474349;28;20284;-75
2021/04/19 02:44:01;;;;;;;74.60;37.43;;;;;4.40;101643.00;;;;10493170;28;20217;-74
2021/04/19 02:49:31;;;;;;;85.77;39.23;;;;;4.50;101635.00;;;;10464052;28;20288;-75
2021/04/19 02:54:34;;;;;;;81.83;37.70;;;;;4.60;101638.00;;;;10477506;28;20247;-75
2021/04/19 02:59:35;;;;;;;79.53;39.30;;;;;4.60;101636.00;;;;10474756;28;20672;-74
2021/04/19 03:04:39;;;;;;;84.07;38.97;;;;;4.60;101625.00;;;;10457503;28;20278;-75
2021/04/19 03:10:00;;;;;;;81.17;40.40;;;;;4.60;101628.00;;;;10446055;28;20214;-75
2021/04/19 03:15:13;;;;;;;86.40;40.00;;;;;4.70;101636.00;;;;10460577;28;20259;-75
2021/04/19 03:20:26;;;;;;;74.30;37.03;;;;;4.80;101625.00;;;;10443344;28;20197;-75
2021/04/19 03:25:48;;;;;;;72.63;38.03;;;;;4.90;101612.00;;;;10487754;28;20224;-75
2021/04/19 03:30:52;;;;;;;73.63;37.50;;;;;4.90;101619.00;;;;10493059;28;20279;-75
2021/04/19 03:35:59;;;;;;;70.60;38.87;;;;;4.90;101608.00;;;;10475051;28;20286;-75
2021/04/19 03:41:05;;;;;;;75.67;37.73;;;;;4.80;101613.00;;;;10473852;28;20281;-75
2021/04/19 03:46:10;;;;;;;80.73;41.87;;;;;4.80;101609.00;;;;10493083;28;20588;-75
2021/04/19 03:51:16;;;;;;;88.47;41.30;;;;;4.80;101607.00;;;;10475060;28;20217;-75
2021/04/19 03:56:27;;;;;;;74.80;39.60;;;;;4.80;101605.00;;;;10490602;28;20292;-75
2021/04/19 04:01:36;;;;;;;87.17;44.03;;;;;4.90;101612.00;;;;10443662;28;20232;-74
2021/04/19 04:06:41;;;;;;;96.40;43.80;;;;;5.00;101604.00;;;;10507824;28;20224;-75
2021/04/19 04:11:43;;;;;;;103.37;47.90;;;;;5.10;101597.00;;;;10441028;28;20202;-75
2021/04/19 04:17:03;;;;;;;87.43;45.17;;;;;5.20;101592.00;;;;10443140;28;20208;-75
2021/04/19 04:22:34;;;;;;;94.57;46.90;;;;;5.30;101593.00;;;;10440025;28;20209;-75
2021/04/19 04:27:37;;;;;;;94.37;47.73;;;;;5.40;101590.00;;;;10457807;28;20224;-75
2021/04/19 04:32:38;;;;;;;91.57;45.50;;;;;5.40;101593.00;;;;10471571;28;20256;-75
2021/04/19 04:37:57;;;;;;;93.10;45.83;;;;;5.40;101587.00;;;;10443771;28;20197;-75
2021/04/19 04:43:11;;;;;;;87.17;44.47;;;;;5.30;101580.00;;;;10491084;28;20193;-75
2021/04/19 04:48:21;;;;;;;82.70;42.97;;;;;5.30;101585.00;;;;10489285;28;20260;-75
2021/04/19 04:53:33;;;;;;;100.03;48.07;;;;;5.30;101587.00;;;;10456100;28;20276;-75
2021/04/19 04:58:39;;;;;;;92.47;47.90;;;;;5.40;101574.00;;;;10449897;28;20193;-75
2021/04/19 05:03:42;;;;;;;95.87;45.27;;;;;5.60;101574.00;;;;10423630;28;20196;-75
2021/04/19 05:08:48;;;;;;;108.53;48.40;;;;;5.70;101582.00;;;;10471470;28;20904;-75
2021/04/19 05:13:49;;;;;;;105.07;51.40;;;;;5.90;101585.00;;;;10472240;28;20360;-75
2021/04/19 05:18:51;;;;;;;107.53;51.07;;;;;6.10;101582.00;;;;10456792;28;20530;-75
2021/04/19 05:23:54;;;;;;;115.33;53.80;;;;;6.20;101578.00;;;;10469790;28;20193;-75
2021/04/19 05:28:55;;;;;;;99.73;50.23;;;;;6.20;101577.00;;;;10456176;28;20261;-75
2021/04/19 05:33:57;;;;;;;101.10;49.03;;;;;6.30;101583.00;;;;10472044;28;20201;-75
2021/04/19 05:38:59;;;;;;;94.33;50.60;;;;;6.30;101579.00;;;;10439429;28;20422;-75
2021/04/19 05:44:01;;;;;;;109.43;54.07;;;;;6.60;101580.00;;;;10472504;28;20951;-75
2021/04/19 05:49:02;;;;;;;110.53;53.53;;;;;6.90;101591.00;;;;10457968;28;20217;-75
2021/04/19 05:54:03;;;;;;;104.20;52.10;;;;;7.10;101601.00;;;;10469610;28;20198;-75
2021/04/19 05:59:30;;;;;;;100.10;52.30;;;;;7.30;101607.00;;;;10472674;28;20189;-75
2021/04/19 06:04:53;;;;;;;96.30;50.00;;;;;7.50;101606.00;;;;10454864;28;20279;-75
2021/04/19 06:10:27;;;;;;;81.37;46.00;;;;;7.80;101602.00;;;;10453658;28;20264;-76
2021/04/19 06:15:35;;;;;;;83.90;46.47;;;;;7.90;101607.00;;;;10471239;28;20829;-75
2021/04/19 06:20:38;;;;;;;82.37;46.77;;;;;8.20;101615.00;;;;10457191;28;20365;-76
2021/04/19 06:25:40;;;;;;;69.03;38.07;;;;;8.40;101615.00;;;;10478827;28;20559;-76
2021/04/19 06:30:44;;;;;;;59.87;37.50;;;;;8.60;101612.00;;;;10430425;28;20556;-75
2021/04/19 06:35:48;;;;;;;62.70;36.80;;;;;8.50;101624.00;;;;10480666;28;20252;-75
2021/04/19 06:40:50;;;;;;;66.07;37.13;;;;;8.50;101623.00;;;;10462300;28;20197;-76
2021/04/19 06:45:51;;;;;;;63.80;38.33;;;;;8.90;101618.00;;;;10479764;28;20181;-76
2021/04/19 06:50:53;;;;;;;64.40;39.03;;;;;8.90;101635.00;;;;10494300;28;20205;-75
2021/04/19 06:55:55;;;;;;;70.33;40.67;;;;;9.20;101639.00;;;;10477048;28;20202;-75
2021/04/19 07:00:57;;;;;;;58.00;35.40;;;;;9.30;101633.00;;;;10476733;28;20675;-75
2021/04/19 07:05:59;;;;;;;60.13;36.00;;;;;9.50;101643.00;;;;10461123;28;20212;-75
2021/04/19 07:11:06;;;;;;;60.07;35.47;;;;;9.70;101629.00;;;;10444710;28;20572;-76
2021/04/19 07:16:07;;;;;;;58.20;35.43;;;;;10.10;101608.00;;;;10500761;28;20225;-76
2021/04/19 07:21:11;;;;;;;51.67;32.50;;;;;10.50;101636.00;;;;10444699;28;20214;-76
2021/04/19 07:26:12;;;;;;;58.43;34.63;;;;;11.00;101619.00;;;;10493310;28;20218;-76
2021/04/19 07:31:14;;;;;;;52.77;32.70;;;;;11.20;101618.00;;;;10457824;28;20248;-75
2021/04/19 07:36:31;;;;;;;48.10;31.03;;;;;11.40;101620.00;;;;10471393;28;20197;-75
2021/04/19 07:42:09;;;;;;;50.20;31.97;;;;;11.60;101628.00;;;;10489802;28;21961;-75
2021/04/19 07:47:17;;;;;;;50.93;31.53;;;;;11.70;101599.00;;;;10355866;28;20750;-75
2021/04/19 07:52:18;;;;;;;45.53;31.17;;;;;12.20;101609.00;;;;10469628;28;20732;-75
2021/04/19 07:57:22;;;;;;;38.90;27.60;;;;;12.50;101594.00;;;;10474528;28;20197;-75
2021/04/19 08:02:23;;;;;;;42.70;30.77;;;;;12.60;101603.00;;;;10504310;28;20197;-75
2021/04/19 08:07:27;;;;;;;44.77;27.93;;;;;13.20;101585.00;;;;10493933;28;20213;-75
2021/04/19 08:12:40;;;;;;;46.23;29.60;;;;;13.80;101583.00;;;;10475682;28;20202;-75
2021/04/19 08:17:41;;;;;;;37.37;24.90;;;;;14.00;101573.00;;;;10453830;28;20212;-75
2021/04/19 08:23:04;;;;;;;44.70;27.90;;;;;14.60;101557.00;;;;10474659;28;20200;-75
2021/04/19 08:28:14;;;;;;;30.10;20.87;;;;;15.20;101561.00;;;;10473699;28;20216;-75
2021/04/19 08:33:17;;;;;;;32.00;22.30;;;;;15.20;101550.00;;;;10454008;28;20269;-75
2021/04/19 08:38:20;;;;;;;29.57;22.30;;;;;15.40;101550.00;;;;10453964;28;20198;-75
2021/04/19 08:43:23;;;;;;;32.90;22.50;;;;;15.40;101559.00;;;;10403566;28;20205;-75
2021/04/19 08:48:25;;;;;;;39.27;24.53;;;;;16.20;101551.00;;;;10436267;28;20281;-76
2021/04/19 08:53:27;;;;;;;29.10;20.70;;;;;16.40;101552.00;;;;10438541;28;20292;-75
2021/04/19 08:58:30;;;;;;;36.67;25.43;;;;;16.30;101560.00;;;;10476929;28;20243;-76
2021/04/19 09:03:31;;;;;;;31.63;21.37;;;;;16.60;101548.00;;;;10494060;28;20217;-73
2021/04/19 09:08:36;;;;;;;36.13;23.80;;;;;16.30;101549.00;;;;10467882;28;20244;-76
2021/04/19 09:13:42;;;;;;;31.27;21.83;;;;;16.50;101545.00;;;;10509362;28;20197;-75
2021/04/19 09:19:06;;;;;;;34.07;21.80;;;;;16.80;101545.00;;;;10464870;28;20205;-76
2021/04/19 09:24:10;;;;;;;30.07;19.77;;;;;17.50;101527.00;;;;10457029;28;20611;-75
2021/04/19 09:29:37;;;;;;;28.13;19.47;;;;;17.40;101528.00;;;;10468073;28;20305;-73
2021/04/19 09:34:49;;;;;;;25.25;19.55;;;;;17.40;101527.00;;;;10418338;28;20233;-74
2021/04/19 09:39:58;;;;;;;27.75;20.42;;;;;17.70;101519.00;;;;10402175;28;20662;-74
2021/04/19 09:44:59;;;;;;;26.67;18.25;;;;;18.10;101527.00;;;;10483271;28;20198;-74
2021/04/19 09:50:03;;;;;;;27.75;18.50;;;;;17.90;101530.00;;;;10489094;28;20209;-74
2021/04/19 09:55:05;;;;;;;26.80;17.08;;;;;18.80;101520.00;;;;10421192;28;20198;-74
2021/04/19 10:00:07;;;;;;;23.08;17.33;;;;;19.20;101519.00;;;;10450943;28;20807;-74
2021/04/19 10:05:11;;;;;;;24.38;17.40;;;;;19.60;101515.00;;;;10435254;28;20225;-74
2021/04/19 10:10:20;;;;;;;25.63;17.95;;;;;20.50;101511.00;;;;10486230;28;20773;-74
2021/04/19 10:15:27;;;;;;;21.63;16.58;;;;;21.50;101499.00;;;;10481695;28;20216;-74
2021/04/19 10:20:29;;;;;;;21.48;15.68;;;;;19.70;101500.00;;;;10468448;28;20674;-74
2021/04/19 10:25:32;;;;;;;26.10;18.65;;;;;18.60;101498.00;;;;10475436;28;20193;-75
2021/04/19 10:30:39;;;;;;;21.98;17.65;;;;;20.40;101480.00;;;;10464909;28;20217;-76
2021/04/19 10:35:45;;;;;;;27.20;18.27;;;;;20.30;101478.00;;;;10443272;28;20284;-76
2021/04/19 10:40:57;;;;;;;23.38;17.77;;;;;20.00;101478.00;;;;10462804;28;20291;-76
2021/04/19 10:45:59;;;;;;;27.92;18.38;;;;;21.00;101478.00;;;;10447009;28;20221;-75
2021/04/19 10:51:28;;;;;;;21.70;17.08;;;;;20.60;101481.00;;;;10454318;28;20210;-76
2021/04/19 10:56:30;;;;;;;23.67;16.98;;;;;20.30;101478.00;;;;10471362;28;20895;-76
2021/04/19 11:01:35;;;;;;;25.33;17.30;;;;;20.20;101461.00;;;;10497065;28;20653;-76
2021/04/19 11:06:37;;;;;;;27.15;17.67;;;;;20.40;101457.00;;;;10473014;28;20998;-76
2021/04/19 11:11:45;;;;;;;19.80;15.90;;;;;20.60;101464.00;;;;10473598;28;20215;-75
2021/04/19 11:16:53;;;;;;;20.70;15.93;;;;;20.70;101455.00;;;;10466968;28;20249;-76
2021/04/19 11:21:55;;;;;;;31.73;17.95;;;;;21.50;101454.00;;;;10442497;28;20201;-76
2021/04/19 11:27:03;;;;;;;23.70;18.40;;;;;21.00;101456.00;;;;10486192;28;20730;-76
2021/04/19 11:32:07;;;;;;;24.15;17.75;;;;;19.90;101451.00;;;;10472355;28;20281;-76
2021/04/19 11:37:28;;;;;;;27.73;18.30;;;;;19.20;101453.00;;;;10453183;28;20196;-75
2021/04/19 11:42:33;;;;;;;24.25;18.90;;;;;18.30;101460.00;;;;10462706;28;20197;-75
2021/04/19 11:47:34;;;;;;;24.00;17.38;;;;;18.30;101444.00;;;;10452335;28;20217;-75
2021/04/19 11:52:46;;;;;;;27.45;18.83;;;;;18.30;101455.00;;;;10488514;28;20193;-75
2021/04/19 11:57:48;;;;;;;20.33;16.40;;;;;18.00;101456.00;;;;10471497;28;20206;-75
2021/04/19 12:02:49;;;;;;;18.83;13.55;;;;;17.30;101453.00;;;;10473189;28;20205;-75
2021/04/19 12:07:50;;;;;;;20.97;16.67;;;;;16.70;101463.00;;;;10457582;28;20218;-75
2021/04/19 12:12:51;;;;;;;22.37;18.10;;;;;16.20;101459.00;;;;10449517;28;20297;-75
2021/04/19 12:17:53;;;;;;;24.30;16.57;;;;;16.20;101452.00;;;;10480815;28;20504;-75
2021/04/19 12:22:55;;;;;;;16.87;11.80;;;;;16.60;101448.00;;;;10486456;28;20196;-75
2021/04/19 12:27:58;;;;;;;15.90;11.53;;;;;16.80;101450.00;;;;10448051;28;20236;-75
2021/04/19 12:32:59;;;;;;;16.47;12.67;;;;;16.80;101451.00;;;;10468872;28;20296;-76
2021/04/19 12:38:01;;;;;;;21.70;14.10;;;;;16.60;101452.00;;;;10473468;28;20231;-75
2021/04/19 12:43:03;;;;;;;21.33;15.30;;;;;16.60;101449.00;;;;10457380;28;20213;-75
2021/04/19 12:48:06;;;;;;;16.87;13.13;;;;;17.00;101451.00;;;;10456319;28;20225;-75
2021/04/19 12:53:09;;;;;;;21.37;13.97;;;;;17.60;101441.00;;;;10445635;28;20573;-75
2021/04/19 12:58:13;;;;;;;16.50;13.17;;;;;18.30;101444.00;;;;10486780;28;20239;-75
2021/04/19 13:03:14;;;;;;;19.67;14.07;;;;;18.80;101434.00;;;;10472120;28;20197;-75
2021/04/19 13:08:15;;;;;;;19.67;14.47;;;;;19.40;101438.00;;;;10445694;28;20222;-76
2021/04/19 13:13:17;;;;;;;17.38;13.20;;;;;19.30;101444.00;;;;10450727;28;20293;-76
2021/04/19 13:18:18;;;;;;;18.73;14.55;;;;;18.90;101430.00;;;;10490536;28;20185;-76
2021/04/19 13:23:20;;;;;;;19.60;14.93;;;;;18.30;101430.00;;;;10472760;28;20198;-76
2021/04/19 13:28:21;;;;;;;22.87;17.47;;;;;17.70;101428.00;;;;10472448;28;20236;-75
2021/04/19 13:33:22;;;;;;;21.73;17.13;;;;;16.90;101433.00;;;;10493138;28;20278;-76
2021/04/19 13:38:24;;;;;;;21.70;16.37;;;;;16.50;101427.00;;;;10512504;28;20194;-75
2021/04/19 13:43:25;;;;;;;20.60;17.00;;;;;16.40;101418.00;;;;10485202;28;20255;-75
2021/04/19 13:48:27;;;;;;;24.73;18.20;;;;;16.70;101405.00;;;;10459485;28;20613;-74
2021/04/19 13:53:28;;;;;;;25.70;18.53;;;;;17.00;101401.00;;;;10474191;28;20244;-76
2021/04/19 13:58:29;;;;;;;22.97;17.33;;;;;16.70;101409.00;;;;10450429;28;20275;-77
2021/04/19 14:03:31;;;;;;;19.57;16.80;;;;;16.50;101405.00;;;;10478659;28;20198;-76
2021/04/19 14:08:32;;;;;;;21.73;16.20;;;;;16.50;101400.00;;;;10461441;28;20236;-72
2021/04/19 14:13:33;;;;;;;22.87;16.57;;;;;16.50;101404.00;;;;10458046;28;20307;-75
2021/04/19 14:18:37;;;;;;;18.43;15.60;;;;;16.60;101389.00;;;;10491702;28;20189;-76
2021/04/19 14:23:39;;;;;;;19.20;14.83;;;;;17.10;101391.00;;;;10467240;28;20237;-75
2021/04/19 14:28:54;;;;;;;19.70;15.00;;;;;17.00;101385.00;;;;10518124;28;20228;-75
2021/04/19 14:33:55;;;;;;;21.90;16.00;;;;;16.30;101392.00;;;;10525876;28;20197;-75
2021/04/19 14:38:58;;;;;;;21.83;17.97;;;;;15.40;101389.00;;;;10438987;28;20360;-75
2021/04/19 14:44:00;;;;;;;17.07;14.17;;;;;14.00;101392.00;;;;10418317;28;20252;-77
2021/04/19 14:49:02;;;;;;;15.23;13.50;;;;;12.70;101394.00;;;;10471782;28;20226;-77
2021/04/19 14:54:06;;;;;;;13.87;11.20;;;;;11.90;101407.00;;;;10461409;28;20206;-77
2021/04/19 14:59:08;;;;;;;17.67;14.13;;;;;11.40;101404.00;;;;10480776;28;20202;-77
2021/04/19 15:04:09;;;;;;;15.90;12.40;;;;;11.20;101405.00;;;;10437703;28;20232;-77
2021/04/19 15:09:11;;;;;;;13.00;11.00;;;;;11.00;101403.00;;;;10437596;28;20308;-77
2021/04/19 15:14:13;;;;;;;15.07;13.47;;;;;10.90;101411.00;;;;10436976;28;20592;-77
2021/04/19 15:19:14;;;;;;;19.40;17.00;;;;;11.10;101411.00;;;;10438196;28;20276;-77
2021/04/19 15:24:15;;;;;;;24.67;20.60;;;;;11.20;101400.00;;;;10469009;28;20197;-76
2021/04/19 15:29:17;;;;;;;27.80;21.17;;;;;11.60;101402.00;;;;10501278;28;20556;-76
2021/04/19 15:34:18;;;;;;;21.50;18.53;;;;;11.90;101399.00;;;;10451519;28;20712;-75
2021/04/19 15:39:20;;;;;;;18.67;16.67;;;;;12.10;101398.00;;;;10461688;28;20193;-74
2021/04/19 15:44:21;;;;;;;20.60;17.93;;;;;12.30;101396.00;;;;10438651;28;20249;-74
2021/04/19 15:49:22;;;;;;;21.07;17.67;;;;;12.60;101385.00;;;;10435087;28;20375;-74
2021/04/19 15:54:24;;;;;;;20.20;18.10;;;;;12.90;101381.00;;;;10451905;28;20228;-74
2021/04/19 15:59:25;;;;;;;22.43;18.37;;;;;13.20;101385.00;;;;10500630;28;20935;-74
2021/04/19 16:04:27;;;;;;;28.30;19.70;;;;;13.50;101386.00;;;;10502018;28;20192;-74
2021/04/19 16:09:29;;;;;;;24.00;18.50;;;;;14.10;101378.00;;;;10501100;28;20234;-74
2021/04/19 16:14:34;;;;;;;22.57;18.13;;;;;14.80;101380.00;;;;10480536;28;20275;-74
2021/04/19 16:19:36;;;;;;;18.57;16.00;;;;;14.70;101378.00;;;;10460160;28;20205;-74
2021/04/19 16:24:37;;;;;;;22.27;17.87;;;;;14.30;101385.00;;;;10465370;28;20228;-74
2021/04/19 16:29:38;;;;;;;18.43;16.47;;;;;13.90;101376.00;;;;10483804;28;20307;-74
2021/04/19 16:34:40;;;;;;;20.53;17.43;;;;;13.90;101387.00;;;;10443937;28;20217;-75
2021/04/19 16:39:41;;;;;;;18.63;16.63;;;;;13.70;101377.00;;;;10466661;28;20246;-75
2021/04/19 16:44:42;;;;;;;20.53;17.07;;;;;13.60;101374.00;;;;10490353;28;20205;-74
2021/04/19 16:49:47;;;;;;;19.33;16.67;;;;;13.40;101374.00;;;;10461908;28;20927;-74
2021/04/19 16:54:48;;;;;;;18.93;16.47;;;;;13.40;101370.00;;;;10492537;28;20197;-75
2021/04/19 16:59:50;;;;;;;20.63;17.47;;;;;13.30;101375.00;;;;10433669;28;20259;-74
2021/04/19 17:04:51;;;;;;;21.33;16.40;;;;;13.10;101379.00;;;;10417101;28;20225;-74
2021/04/19 17:09:52;;;;;;;21.17;16.70;;;;;12.80;101376.00;;;;10515625;28;20305;-74
2021/04/19 17:14:54;;;;;;;19.77;16.57;;;;;12.70;101367.00;;;;10457645;28;20798;-74
2021/04/19 17:20:00;;;;;;;18.87;16.20;;;;;12.50;101372.00;;;;10442143;28;20309;-74
2021/04/19 17:25:03;;;;;;;18.47;16.50;;;;;12.20;101367.00;;;;10473374;28;20217;-74
2021/04/19 17:30:08;;;;;;;20.77;16.80;;;;;12.00;101374.00;;;;10453827;28;20768;-74
2021/04/19 17:35:11;;;;;;;21.80;16.83;;;;;11.90;101378.00;;;;10485671;28;20281;-74
2021/04/19 17:40:15;;;;;;;22.63;18.67;;;;;11.80;101367.00;;;;10453600;28;20217;-74
2021/04/19 17:45:18;;;;;;;22.53;19.03;;;;;11.70;101373.00;;;;10448560;28;20197;-74
2021/04/19 17:50:19;;;;;;;22.70;18.53;;;;;11.60;101376.00;;;;10445176;28;20217;-74
2021/04/19 17:55:22;;;;;;;23.07;19.93;;;;;11.50;101378.00;;;;10432320;28;20237;-74
2021/04/19 18:00:24;;;;;;;22.57;19.87;;;;;11.40;101387.00;;;;10500751;28;20201;-74
2021/04/19 18:05:30;;;;;;;24.80;20.63;;;;;11.20;101389.00;;;;10430410;28;20928;-74
2021/04/19 18:10:40;;;;;;;23.47;20.40;;;;;11.00;101386.00;;;;10436019;28;20225;-74
2021/04/19 18:15:42;;;;;;;26.87;21.17;;;;;10.80;101390.00;;;;10491224;28;20251;-74
2021/04/19 18:20:48;;;;;;;27.73;23.47;;;;;10.60;101396.00;;;;10464211;28;20842;-74
2021/04/19 18:25:49;;;;;;;32.00;25.30;;;;;10.30;101397.00;;;;10447963;28;20613;-74
2021/04/19 18:30:50;;;;;;;37.83;27.60;;;;;10.10;101391.00;;;;10435540;28;20225;-74
2021/04/19 18:35:52;;;;;;;33.37;26.37;;;;;9.90;101395.00;;;;10460744;28;20526;-74
2021/04/19 18:40:53;;;;;;;34.93;26.83;;;;;9.70;101391.00;;;;10486264;28;20216;-74
2021/04/19 18:46:03;;;;;;;36.00;29.03;;;;;9.60;101387.00;;;;10469065;28;20672;-74
2021/04/19 18:51:06;;;;;;;33.40;28.03;;;;;9.50;101392.00;;;;10460823;28;20217;-74
2021/04/19 18:56:08;;;;;;;39.63;29.57;;;;;9.30;101394.00;;;;10460158;28;20205;-74
2021/04/19 19:01:09;;;;;;;38.43;30.00;;;;;9.20;101399.00;;;;10475681;28;21069;-74
2021/04/19 19:06:11;;;;;;;41.40;31.03;;;;;9.00;101391.00;;;;10474846;28;20817;-74
2021/04/19 19:11:13;;;;;;;36.20;28.60;;;;;8.90;101400.00;;;;10457454;28;20232;-74
2021/04/19 19:16:20;;;;;;;44.37;32.93;;;;;8.80;101402.00;;;;10457867;28;20204;-74
2021/04/19 19:21:21;;;;;;;41.70;32.97;;;;;8.70;101415.00;;;;10470733;28;20296;-74
2021/04/19 19:26:29;;;;;;;41.43;30.53;;;;;8.60;101413.00;;;;10432947;28;20248;-74
2021/04/19 19:31:31;;;;;;;59.87;39.03;;;;;8.50;101414.00;;;;10460165;28;20251;-74
2021/04/19 19:36:32;;;;;;;57.50;39.60;;;;;8.40;101406.00;;;;10457907;28;20232;-74
2021/04/19 19:41:33;;;;;;;54.23;38.90;;;;;8.40;101406.00;;;;10457707;28;20291;-74
2021/04/19 19:46:35;;;;;;;51.40;37.87;;;;;8.30;101403.00;;;;10452115;28;20225;-74
2021/04/19 19:51:38;;;;;;;48.47;34.70;;;;;8.10;101400.00;;;;10507157;28;20764;-74
2021/04/19 19:56:39;;;;;;;49.80;36.23;;;;;8.00;101403.00;;;;10454442;28;20194;-74
2021/04/19 20:01:41;;;;;;;66.33;44.07;;;;;7.90;101399.00;;;;10506458;28;20207;-73
2021/04/19 20:06:42;;;;;;;61.93;42.90;;;;;8.00;101404.00;;;;10436403;28;20213;-73
2021/04/19 20:11:44;;;;;;;58.57;43.10;;;;;8.10;101405.00;;;;10490122;28;20255;-74
2021/04/19 20:16:45;;;;;;;62.77;45.07;;;;;8.30;101412.00;;;;10482106;28;20201;-74
2021/04/19 20:21:47;;;;;;;65.30;46.13;;;;;8.40;101415.00;;;;10456045;28;20201;-74
2021/04/19 20:26:48;;;;;;;55.07;41.03;;;;;8.40;101415.00;;;;10423269;28;20205;-74
2021/04/19 20:31:50;;;;;;;49.17;37.60;;;;;8.20;101417.00;;;;10469385;28;20264;-73
2021/04/19 20:36:51;;;;;;;48.10;36.83;;;;;8.10;101417.00;;;;10472884;28;20722;-74
2021/04/19 20:41:53;;;;;;;50.90;37.60;;;;;7.90;101416.00;;;;10504825;28;20204;-74
2021/04/19 20:46:56;;;;;;;55.27;40.00;;;;;7.80;101419.00;;;;10451076;28;20213;-74
2021/04/19 20:51:58;;;;;;;51.30;38.47;;;;;7.70;101408.00;;;;10484747;28;20317;-74
2021/04/19 20:57:00;;;;;;;52.70;41.37;;;;;7.60;101411.00;;;;10495104;28;20201;-74
2021/04/19 21:02:01;;;;;;;52.93;36.83;;;;;7.70;101415.00;;;;10489466;28;20267;-73
2021/04/19 21:07:03;;;;;;;60.47;42.60;;;;;7.90;101407.00;;;;10454677;28;20584;-73
2021/04/19 21:12:05;;;;;;;53.87;39.73;;;;;7.90;101414.00;;;;10455724;28;20555;-73
2021/04/19 21:17:07;;;;;;;56.73;41.53;;;;;8.00;101418.00;;;;10458626;28;20201;-74
2021/04/19 21:22:20;;;;;;;50.23;38.33;;;;;8.10;101421.00;;;;10456800;28;20668;-73
2021/04/19 21:27:21;;;;;;;47.87;34.53;;;;;7.80;101423.00;;;;10453583;28;20797;-74
2021/04/19 21:32:23;;;;;;;42.50;32.50;;;;;7.50;101416.00;;;;10470326;28;20363;-72
2021/04/19 21:37:25;;;;;;;50.90;37.57;;;;;7.20;101411.00;;;;10472186;28;20212;-72
2021/04/19 21:42:26;;;;;;;52.33;37.73;;;;;7.10;101420.00;;;;10459517;28;20255;-73
2021/04/19 21:47:31;;;;;;;53.90;38.60;;;;;6.90;101408.00;;;;10464984;28;20243;-72
2021/04/19 21:52:33;;;;;;;58.83;38.73;;;;;6.80;101400.00;;;;10454286;28;20214;-72
2021/04/19 21:57:35;;;;;;;57.03;37.40;;;;;6.80;101418.00;;;;10492530;28;20703;-72
2021/04/19 22:02:37;;;;;;;56.63;39.10;;;;;6.90;101418.00;;;;10493698;28;20193;-72
2021/04/19 22:07:39;;;;;;;63.20;43.07;;;;;6.90;101409.00;;;;10477493;28;20221;-72
2021/04/19 22:12:41;;;;;;;60.97;42.37;;;;;7.00;101414.00;;;;10444317;28;20201;-72
2021/04/19 22:17:42;;;;;;;56.80;39.37;;;;;6.90;101408.00;;;;10461710;28;20225;-74
2021/04/19 22:22:47;;;;;;;55.70;39.60;;;;;6.80;101415.00;;;;10478160;28;20247;-72
2021/04/19 22:27:50;;;;;;;73.87;45.27;;;;;6.80;101419.00;;;;10475292;28;20282;-72
2021/04/19 22:32:52;;;;;;;71.03;44.27;;;;;7.00;101422.00;;;;10460053;28;20251;-72
2021/04/19 22:37:54;;;;;;;66.20;44.57;;;;;7.10;101416.00;;;;10455135;28;20202;-72
2021/04/19 22:42:57;;;;;;;57.80;38.73;;;;;7.00;101409.00;;;;10447204;28;20997;-72
2021/04/19 22:48:04;;;;;;;76.87;45.80;;;;;7.00;101415.00;;;;10537936;28;20216;-73
2021/04/19 22:53:06;;;;;;;83.37;48.50;;;;;7.00;101412.00;;;;10505350;28;20946;-72
2021/04/19 22:58:07;;;;;;;60.50;41.07;;;;;6.90;101411.00;;;;10492668;28;20247;-72
2021/04/19 23:03:09;;;;;;;50.03;36.20;;;;;6.60;101407.00;;;;10433929;28;20239;-72
2021/04/19 23:08:10;;;;;;;61.23;39.87;;;;;6.40;101409.00;;;;10414737;28;20226;-72
2021/04/19 23:13:12;;;;;;;55.57;38.87;;;;;6.30;101405.00;;;;10461583;28;20197;-72
2021/04/19 23:18:13;;;;;;;54.90;38.53;;;;;6.10;101403.00;;;;10462014;28;20247;-72
2021/04/19 23:23:14;;;;;;;57.10;38.43;;;;;5.90;101402.00;;;;10478790;28;20196;-72
2021/04/19 23:28:16;;;;;;;57.80;39.77;;;;;5.80;101385.00;;;;10460822;28;20225;-72
2021/04/19 23:33:17;;;;;;;65.93;38.77;;;;;5.70;101387.00;;;;10444298;28;20204;-72
2021/04/19 23:38:19;;;;;;;62.00;42.03;;;;;5.60;101390.00;;;;10477743;28;20217;-72
2021/04/19 23:43:20;;;;;;;76.03;44.37;;;;;5.60;101377.00;;;;10476842;28;20225;-72
2021/04/19 23:48:21;;;;;;;62.97;40.53;;;;;5.50;101372.00;;;;10444381;28;20232;-72
2021/04/19 23:53:23;;;;;;;74.50;43.67;;;;;5.40;101360.00;;;;10477148;28;20281;-72
2021/04/19 23:58:24;;;;;;;82.33;48.83;;;;;5.40;101360.00;;;;10494374;28;20204;-73
